Portada
METAR-TAF:

METAR-TAF

Aeropuertos :

Recife, Pernambuco, Brasil

Aeropuerto Internacional de Recife

latitud: 08-08S, longitud: 034-55W, altitud: 19 m

Observación

El informe se hizo hace 28 minutos, a las 04:00 UTC
Viento 7 kt del sureste
Temperatura 25°C
Humedad 74%
Presión 1016 hPa
Visibilidad 10 km o más
Nubes dispersas a una altura de 2300 ft
Nubes dispersas a una altura de 7000 ft

METAR: SBRF 220400Z 13007KT 9999 SCT023 SCT070 25/20 Q1016

Hora: 01:28 (04:28 UTC)

Pronóstico

El informe se hizo hace 6 horas y 28 minutos, a las 22:00 UTC
Pronóstico válido del 22 a las 00 UTC al 22 a las 24 UTC
Viento 12 kt del sur-sureste
Visibilidad: 8000 m
Nubes dispersas a una altura de 2300 ft

TAF: SBRF 212200Z 2200/2224 15012KT 8000 SCT023 TN24/2207Z TX28/2216Z RMK PEA

Observaciones y pronósticos meteorológicos de más de 4000 aeropuertos (mensajes METAR y TAF).

Los puntos amarillos y rojos representan las estaciones disponibles.

Ponga el ratón en el punto deseado para ver el nombre de la estación.

Haga clic para ver las observaciones y los pronósticos meteorológicos.

Para cambiar el mapa : haga clic en los botones verdes con una cruz de color negro para hacer un zoom, en el botón verde con un guión para alejar o en las flechas verdes para mapas adyacentes.


METAR-TAF: